| Date | Time | Temp. (oF) | Dew Point (oF) | Rel. Hum. (%) | Press. (in.) | Wind Dir. | Wind Speed (mph) | Hourly Rainfall (in.) |
|
|---|---|---|---|---|---|---|---|---|---|
| 1 | 01/26 | 00:00 | 30 | 23 | 76 | 30.23 | SSW | 1 | 0.00 |
| 2 | 01/25 | 23:00 | 32 | 23 | 70 | 30.23 | SE | 4 | 0.00 |
| 3 | 01/25 | 22:00 | 34 | 23 | 66 | 30.23 | SSW | 1 | 0.00 |
| 4 | 01/25 | 21:00 | 35 | 22 | 59 | 30.22 | SW | 2 | 0.00 |
| 5 | 01/25 | 20:00 | 37 | 22 | 56 | 30.21 | WSW | 4 | 0.00 |
| 6 | 01/25 | 19:00 | 39 | 22 | 51 | 30.20 | WSW | 2 | 0.00 |
| 7 | 01/25 | 18:00 | 43 | 23 | 45 | 30.17 | SW | 0 | 0.00 |
| 8 | 01/25 | 17:00 | 46 | 22 | 39 | 30.15 | NW | 5 | 0.00 |
| 9 | 01/25 | 16:00 | 48 | 24 | 40 | 30.11 | WNW | 9 | 0.00 |
| 10 | 01/25 | 15:00 | 47 | 24 | 41 | 30.10 | SW | 7 | 0.00 |
| 11 | 01/25 | 14:00 | 46 | 24 | 43 | 30.11 | SW | 8 | 0.00 |
| 12 | 01/25 | 13:00 | 44 | 24 | 47 | 30.12 | SW | 8 | 0.00 |
| 13 | 01/25 | 12:00 | 43 | 25 | 50 | 30.12 | W | 13 | 0.00 |
| 14 | 01/25 | 11:00 | 39 | 23 | 53 | 30.13 | NW | 14 | 0.00 |
| 15 | 01/25 | 10:00 | 38 | 25 | 61 | 30.13 | WNW | 10 | 0.00 |
| 16 | 01/25 | 09:00 | 35 | 25 | 67 | 30.11 | W | 5 | 0.00 |
| 17 | 01/25 | 08:00 | 33 | 25 | 73 | 30.08 | WNW | 11 | 0.00 |
| 18 | 01/25 | 07:00 | 33 | 24 | 70 | 30.03 | WNW | 10 | 0.00 |
| 19 | 01/25 | 06:00 | 36 | 29 | 77 | 29.98 | NW | 5 | 0.00 |
| 20 | 01/25 | 05:00 | 37 | 31 | 80 | 29.93 | WNW | 14 | 0.00 |
| 21 | 01/25 | 04:00 | 38 | 32 | 79 | 29.89 | NW | 8 | 0.00 |
| 22 | 01/25 | 03:00 | 40 | 34 | 80 | 29.86 | W | 9 | 0.00 |
| 23 | 01/25 | 02:00 | 41 | 35 | 80 | 29.85 | WNW | 8 | 0.00 |
| 24 | 01/25 | 01:00 | 44 | 38 | 80 | 29.82 | NW | 7 | 0.00 |